METAR Data
IDs: Format: Raw Decoded Include TAF

Data at: 0830 UTC 01 Aug 2021

EKKA 010820Z AUTO 25013KT 9999 FEW023/// FEW041/// 16/10 Q1002